Terminal Aerodrome Forecast
Issued by NWS

Current Version | Previous Version | Graphics & Text | Print | Product List | Glossary On
Versions: 1 2 3 4 5 6 7 8 9 10 11 12 13 14 15 16 17 18 19 20 21 22 23 24 25
000
FTUS41 KILN 231736
TAFLUK
TAF
KLUK 231736Z 2318/2418 21009KT P6SM BKN025
     FM232000 21008KT P6SM BKN040
     FM240300 16006KT P6SM BKN050
     FM241100 19010KT P6SM BKN080
     FM241500 19014G24KT P6SM BKN035=

USA.gov is the U.S. government's official web portal to all federal, state and local government web resources and services.